sensor_id;sensor_type;location;lat;lon;timestamp;P1;durP1;ratioP1;P2;durP2;ratioP2
13687;SDS011;6916;51.504;7.416;2022-10-16T00:00:21;3.80;;;1.70;;
13687;SDS011;6916;51.504;7.416;2022-10-16T00:05:43;2.17;;;1.33;;
13687;SDS011;6916;51.504;7.416;2022-10-16T00:11:10;4.57;;;1.20;;
13687;SDS011;6916;51.504;7.416;2022-10-16T00:16:33;1.93;;;1.20;;
13687;SDS011;6916;51.504;7.416;2022-10-16T00:21:55;4.13;;;1.67;;
13687;SDS011;6916;51.504;7.416;2022-10-16T00:27:17;1.65;;;1.50;;
13687;SDS011;6916;51.504;7.416;2022-10-16T00:32:39;2.93;;;1.10;;
13687;SDS011;6916;51.504;7.416;2022-10-16T00:38:01;4.03;;;1.07;;
13687;SDS011;6916;51.504;7.416;2022-10-16T00:43:34;3.10;;;1.57;;
13687;SDS011;6916;51.504;7.416;2022-10-16T00:54:31;1.67;;;1.13;;
13687;SDS011;6916;51.504;7.416;2022-10-16T00:59:54;4.53;;;0.87;;
13687;SDS011;6916;51.504;7.416;2022-10-16T01:05:16;5.70;;;1.40;;
13687;SDS011;6916;51.504;7.416;2022-10-16T01:16:44;5.37;;;1.03;;
13687;SDS011;6916;51.504;7.416;2022-10-16T01:22:11;3.00;;;0.90;;
13687;SDS011;6916;51.504;7.416;2022-10-16T01:27:34;2.20;;;1.13;;
13687;SDS011;6916;51.504;7.416;2022-10-16T01:38:38;1.73;;;0.87;;
13687;SDS011;6916;51.504;7.416;2022-10-16T01:44:02;4.63;;;0.90;;
13687;SDS011;6916;51.504;7.416;2022-10-16T01:49:27;1.20;;;0.80;;
13687;SDS011;6916;51.504;7.416;2022-10-16T01:54:52;1.13;;;0.97;;
13687;SDS011;6916;51.504;7.416;2022-10-16T02:00:16;5.90;;;1.00;;
13687;SDS011;6916;51.504;7.416;2022-10-16T02:05:45;1.20;;;0.70;;
13687;SDS011;6916;51.504;7.416;2022-10-16T02:11:09;2.43;;;0.93;;
13687;SDS011;6916;51.504;7.416;2022-10-16T02:16:36;3.13;;;0.87;;
13687;SDS011;6916;51.504;7.416;2022-10-16T02:22:01;2.17;;;0.80;;
13687;SDS011;6916;51.504;7.416;2022-10-16T02:27:33;1.80;;;0.83;;
13687;SDS011;6916;51.504;7.416;2022-10-16T02:32:58;1.90;;;0.87;;
13687;SDS011;6916;51.504;7.416;2022-10-16T02:38:21;2.90;;;0.90;;
13687;SDS011;6916;51.504;7.416;2022-10-16T02:43:44;1.63;;;1.10;;
13687;SDS011;6916;51.504;7.416;2022-10-16T02:49:07;1.37;;;0.60;;
13687;SDS011;6916;51.504;7.416;2022-10-16T02:54:29;1.30;;;0.67;;
13687;SDS011;6916;51.504;7.416;2022-10-16T02:59:51;1.93;;;0.60;;
13687;SDS011;6916;51.504;7.416;2022-10-16T03:05:13;2.42;;;0.75;;
13687;SDS011;6916;51.504;7.416;2022-10-16T03:10:20;1.23;;;0.60;;
13687;SDS011;6916;51.504;7.416;2022-10-16T03:15:43;3.67;;;0.77;;
13687;SDS011;6916;51.504;7.416;2022-10-16T03:21:05;2.23;;;0.63;;
13687;SDS011;6916;51.504;7.416;2022-10-16T03:26:27;1.47;;;0.50;;
13687;SDS011;6916;51.504;7.416;2022-10-16T03:31:49;1.73;;;0.40;;
13687;SDS011;6916;51.504;7.416;2022-10-16T03:37:11;1.07;;;0.47;;
13687;SDS011;6916;51.504;7.416;2022-10-16T03:42:33;1.23;;;0.50;;
13687;SDS011;6916;51.504;7.416;2022-10-16T03:47:56;0.50;;;0.37;;
13687;SDS011;6916;51.504;7.416;2022-10-16T03:53:18;0.30;;;0.30;;
13687;SDS011;6916;51.504;7.416;2022-10-16T03:58:40;2.67;;;0.63;;
13687;SDS011;6916;51.504;7.416;2022-10-16T04:04:02;1.10;;;0.30;;
13687;SDS011;6916;51.504;7.416;2022-10-16T04:09:24;0.30;;;0.30;;
13687;SDS011;6916;51.504;7.416;2022-10-16T04:14:46;2.73;;;0.53;;
13687;SDS011;6916;51.504;7.416;2022-10-16T04:20:08;0.67;;;0.40;;
13687;SDS011;6916;51.504;7.416;2022-10-16T04:25:30;1.37;;;0.40;;
13687;SDS011;6916;51.504;7.416;2022-10-16T04:30:52;2.63;;;0.53;;
13687;SDS011;6916;51.504;7.416;2022-10-16T04:36:15;1.97;;;0.50;;
13687;SDS011;6916;51.504;7.416;2022-10-16T04:41:37;3.20;;;0.60;;
13687;SDS011;6916;51.504;7.416;2022-10-16T04:47:00;0.93;;;0.40;;
13687;SDS011;6916;51.504;7.416;2022-10-16T04:52:22;0.63;;;0.30;;
13687;SDS011;6916;51.504;7.416;2022-10-16T04:57:33;2.37;;;0.60;;
13687;SDS011;6916;51.504;7.416;2022-10-16T05:02:56;0.33;;;0.30;;
13687;SDS011;6916;51.504;7.416;2022-10-16T05:08:18;0.30;;;0.23;;
13687;SDS011;6916;51.504;7.416;2022-10-16T05:13:40;1.47;;;0.40;;
13687;SDS011;6916;51.504;7.416;2022-10-16T05:19:03;0.33;;;0.30;;
13687;SDS011;6916;51.504;7.416;2022-10-16T05:24:25;0.40;;;0.30;;
13687;SDS011;6916;51.504;7.416;2022-10-16T05:29:48;1.63;;;0.50;;
13687;SDS011;6916;51.504;7.416;2022-10-16T05:35:10;0.77;;;0.20;;
13687;SDS011;6916;51.504;7.416;2022-10-16T05:40:32;1.27;;;0.40;;
13687;SDS011;6916;51.504;7.416;2022-10-16T05:45:58;0.50;;;0.40;;
13687;SDS011;6916;51.504;7.416;2022-10-16T05:51:25;2.90;;;0.50;;
13687;SDS011;6916;51.504;7.416;2022-10-16T05:56:47;0.63;;;0.37;;
13687;SDS011;6916;51.504;7.416;2022-10-16T06:02:12;0.63;;;0.47;;
13687;SDS011;6916;51.504;7.416;2022-10-16T06:07:35;1.73;;;0.37;;
13687;SDS011;6916;51.504;7.416;2022-10-16T06:12:57;1.60;;;0.50;;
13687;SDS011;6916;51.504;7.416;2022-10-16T06:18:19;0.60;;;0.43;;
13687;SDS011;6916;51.504;7.416;2022-10-16T06:23:41;0.80;;;0.20;;
13687;SDS011;6916;51.504;7.416;2022-10-16T06:28:45;1.17;;;0.50;;
13687;SDS011;6916;51.504;7.416;2022-10-16T06:34:10;1.77;;;0.80;;
13687;SDS011;6916;51.504;7.416;2022-10-16T06:39:33;4.37;;;0.90;;
13687;SDS011;6916;51.504;7.416;2022-10-16T06:44:55;1.63;;;0.60;;
13687;SDS011;6916;51.504;7.416;2022-10-16T06:50:17;1.03;;;0.50;;
13687;SDS011;6916;51.504;7.416;2022-10-16T06:55:39;3.80;;;0.50;;
13687;SDS011;6916;51.504;7.416;2022-10-16T07:01:02;1.70;;;0.70;;
13687;SDS011;6916;51.504;7.416;2022-10-16T07:06:25;0.40;;;0.40;;
13687;SDS011;6916;51.504;7.416;2022-10-16T07:11:52;0.57;;;0.30;;
13687;SDS011;6916;51.504;7.416;2022-10-16T07:17:18;2.50;;;0.60;;
13687;SDS011;6916;51.504;7.416;2022-10-16T07:22:40;1.07;;;0.43;;
13687;SDS011;6916;51.504;7.416;2022-10-16T07:28:02;2.47;;;0.53;;
13687;SDS011;6916;51.504;7.416;2022-10-16T07:33:24;3.23;;;0.80;;
13687;SDS011;6916;51.504;7.416;2022-10-16T07:38:46;3.03;;;0.40;;
13687;SDS011;6916;51.504;7.416;2022-10-16T07:44:09;1.30;;;0.60;;
13687;SDS011;6916;51.504;7.416;2022-10-16T07:49:31;1.37;;;0.63;;
13687;SDS011;6916;51.504;7.416;2022-10-16T07:54:53;1.53;;;0.77;;
13687;SDS011;6916;51.504;7.416;2022-10-16T07:59:56;0.60;;;0.60;;
13687;SDS011;6916;51.504;7.416;2022-10-16T08:05:18;2.20;;;0.80;;
13687;SDS011;6916;51.504;7.416;2022-10-16T08:10:40;2.30;;;0.60;;
13687;SDS011;6916;51.504;7.416;2022-10-16T08:16:03;2.23;;;0.60;;
13687;SDS011;6916;51.504;7.416;2022-10-16T08:21:29;1.57;;;0.80;;
13687;SDS011;6916;51.504;7.416;2022-10-16T08:26:55;1.70;;;0.63;;
13687;SDS011;6916;51.504;7.416;2022-10-16T08:32:17;2.13;;;0.50;;
13687;SDS011;6916;51.504;7.416;2022-10-16T08:37:39;0.70;;;0.50;;
13687;SDS011;6916;51.504;7.416;2022-10-16T08:43:08;2.40;;;0.80;;
13687;SDS011;6916;51.504;7.416;2022-10-16T08:48:43;0.95;;;0.60;;
13687;SDS011;6916;51.504;7.416;2022-10-16T08:54:28;2.15;;;0.50;;
13687;SDS011;6916;51.504;7.416;2022-10-16T09:00:12;1.70;;;0.40;;
13687;SDS011;6916;51.504;7.416;2022-10-16T09:16:41;1.00;;;0.35;;
13687;SDS011;6916;51.504;7.416;2022-10-16T09:22:10;3.55;;;0.50;;
13687;SDS011;6916;51.504;7.416;2022-10-16T09:27:35;1.77;;;0.30;;
13687;SDS011;6916;51.504;7.416;2022-10-16T09:32:57;1.83;;;0.50;;
13687;SDS011;6916;51.504;7.416;2022-10-16T09:38:21;0.95;;;0.32;;
13687;SDS011;6916;51.504;7.416;2022-10-16T09:49:24;1.63;;;0.60;;
13687;SDS011;6916;51.504;7.416;2022-10-16T09:54:48;6.25;;;0.40;;
13687;SDS011;6916;51.504;7.416;2022-10-16T10:00:18;2.63;;;0.30;;
13687;SDS011;6916;51.504;7.416;2022-10-16T10:05:41;3.80;;;0.50;;
13687;SDS011;6916;51.504;7.416;2022-10-16T10:11:03;2.45;;;0.40;;
13687;SDS011;6916;51.504;7.416;2022-10-16T10:16:26;1.63;;;0.40;;
13687;SDS011;6916;51.504;7.416;2022-10-16T10:21:49;2.53;;;0.38;;
13687;SDS011;6916;51.504;7.416;2022-10-16T10:27:15;1.10;;;0.30;;
13687;SDS011;6916;51.504;7.416;2022-10-16T10:49:46;2.13;;;0.57;;
13687;SDS011;6916;51.504;7.416;2022-10-16T11:01:16;2.42;;;0.30;;
13687;SDS011;6916;51.504;7.416;2022-10-16T11:06:52;4.07;;;0.20;;
13687;SDS011;6916;51.504;7.416;2022-10-16T11:12:19;3.22;;;0.40;;
13687;SDS011;6916;51.504;7.416;2022-10-16T11:17:53;0.90;;;0.22;;
13687;SDS011;6916;51.504;7.416;2022-10-16T11:23:30;1.63;;;0.13;;
13687;SDS011;6916;51.504;7.416;2022-10-16T11:28:55;3.58;;;0.45;;
13687;SDS011;6916;51.504;7.416;2022-10-16T11:40:21;3.80;;;0.20;;
13687;SDS011;6916;51.504;7.416;2022-10-16T11:45:49;3.60;;;0.30;;
13687;SDS011;6916;51.504;7.416;2022-10-16T11:57:12;4.00;;;0.30;;
13687;SDS011;6916;51.504;7.416;2022-10-16T12:08:38;3.30;;;0.20;;
13687;SDS011;6916;51.504;7.416;2022-10-16T12:14:05;1.63;;;0.20;;
13687;SDS011;6916;51.504;7.416;2022-10-16T12:19:28;0.40;;;0.20;;
13687;SDS011;6916;51.504;7.416;2022-10-16T12:24:51;2.95;;;0.25;;
13687;SDS011;6916;51.504;7.416;2022-10-16T12:30:20;1.85;;;0.38;;
13687;SDS011;6916;51.504;7.416;2022-10-16T12:35:47;1.25;;;0.20;;
13687;SDS011;6916;51.504;7.416;2022-10-16T12:41:09;0.95;;;0.40;;
13687;SDS011;6916;51.504;7.416;2022-10-16T12:51:56;1.17;;;0.17;;
13687;SDS011;6916;51.504;7.416;2022-10-16T13:08:38;2.90;;;0.32;;
13687;SDS011;6916;51.504;7.416;2022-10-16T13:14:24;0.93;;;0.20;;
13687;SDS011;6916;51.504;7.416;2022-10-16T13:26:01;0.65;;;0.20;;
13687;SDS011;6916;51.504;7.416;2022-10-16T13:31:30;0.85;;;0.20;;
13687;SDS011;6916;51.504;7.416;2022-10-16T13:36:53;0.85;;;0.20;;
13687;SDS011;6916;51.504;7.416;2022-10-16T13:42:18;1.13;;;0.20;;
13687;SDS011;6916;51.504;7.416;2022-10-16T13:47:47;1.63;;;0.35;;
13687;SDS011;6916;51.504;7.416;2022-10-16T13:53:13;4.30;;;0.28;;
13687;SDS011;6916;51.504;7.416;2022-10-16T13:58:36;3.13;;;0.40;;
13687;SDS011;6916;51.504;7.416;2022-10-16T14:04:04;0.50;;;0.20;;
13687;SDS011;6916;51.504;7.416;2022-10-16T14:09:28;0.55;;;0.20;;
13687;SDS011;6916;51.504;7.416;2022-10-16T14:14:44;2.42;;;0.30;;
13687;SDS011;6916;51.504;7.416;2022-10-16T14:20:12;1.60;;;0.20;;
13687;SDS011;6916;51.504;7.416;2022-10-16T14:25:40;3.42;;;0.38;;
13687;SDS011;6916;51.504;7.416;2022-10-16T14:31:03;4.10;;;0.20;;
13687;SDS011;6916;51.504;7.416;2022-10-16T14:36:42;3.13;;;0.50;;
13687;SDS011;6916;51.504;7.416;2022-10-16T14:42:04;1.15;;;0.22;;
13687;SDS011;6916;51.504;7.416;2022-10-16T14:47:27;0.40;;;0.15;;
13687;SDS011;6916;51.504;7.416;2022-10-16T14:52:50;3.40;;;0.40;;
13687;SDS011;6916;51.504;7.416;2022-10-16T14:58:18;3.35;;;0.30;;
13687;SDS011;6916;51.504;7.416;2022-10-16T15:03:44;1.13;;;0.30;;
13687;SDS011;6916;51.504;7.416;2022-10-16T15:09:09;3.75;;;0.47;;
13687;SDS011;6916;51.504;7.416;2022-10-16T15:14:31;2.60;;;0.40;;
13687;SDS011;6916;51.504;7.416;2022-10-16T15:19:53;1.25;;;0.17;;
13687;SDS011;6916;51.504;7.416;2022-10-16T15:25:30;1.55;;;0.32;;
13687;SDS011;6916;51.504;7.416;2022-10-16T15:31:01;1.83;;;0.50;;
13687;SDS011;6916;51.504;7.416;2022-10-16T15:36:26;2.67;;;0.67;;
13687;SDS011;6916;51.504;7.416;2022-10-16T15:41:50;1.83;;;0.60;;
13687;SDS011;6916;51.504;7.416;2022-10-16T15:47:14;1.88;;;0.85;;
13687;SDS011;6916;51.504;7.416;2022-10-16T15:52:37;2.22;;;0.70;;
13687;SDS011;6916;51.504;7.416;2022-10-16T15:58:00;2.50;;;0.85;;
13687;SDS011;6916;51.504;7.416;2022-10-16T16:03:23;2.60;;;0.60;;
13687;SDS011;6916;51.504;7.416;2022-10-16T16:08:45;2.00;;;0.70;;
13687;SDS011;6916;51.504;7.416;2022-10-16T16:14:02;6.72;;;1.10;;
13687;SDS011;6916;51.504;7.416;2022-10-16T16:19:24;5.53;;;1.42;;
13687;SDS011;6916;51.504;7.416;2022-10-16T16:24:46;3.53;;;0.90;;
13687;SDS011;6916;51.504;7.416;2022-10-16T16:30:10;2.15;;;1.27;;
13687;SDS011;6916;51.504;7.416;2022-10-16T16:35:33;2.13;;;1.45;;
13687;SDS011;6916;51.504;7.416;2022-10-16T16:40:55;4.35;;;2.10;;
13687;SDS011;6916;51.504;7.416;2022-10-16T16:46:17;2.08;;;1.27;;
13687;SDS011;6916;51.504;7.416;2022-10-16T16:51:40;2.85;;;0.77;;
13687;SDS011;6916;51.504;7.416;2022-10-16T16:57:02;3.55;;;0.80;;
13687;SDS011;6916;51.504;7.416;2022-10-16T17:02:25;7.15;;;1.30;;
13687;SDS011;6916;51.504;7.416;2022-10-16T17:07:47;2.47;;;1.02;;
13687;SDS011;6916;51.504;7.416;2022-10-16T17:13:09;3.97;;;1.00;;
13687;SDS011;6916;51.504;7.416;2022-10-16T17:18:32;2.88;;;1.38;;
13687;SDS011;6916;51.504;7.416;2022-10-16T17:23:54;3.42;;;1.30;;
13687;SDS011;6916;51.504;7.416;2022-10-16T17:29:17;5.85;;;1.58;;
13687;SDS011;6916;51.504;7.416;2022-10-16T17:34:40;3.58;;;1.90;;
13687;SDS011;6916;51.504;7.416;2022-10-16T17:40:02;4.40;;;2.20;;
13687;SDS011;6916;51.504;7.416;2022-10-16T17:45:13;4.25;;;1.83;;
13687;SDS011;6916;51.504;7.416;2022-10-16T17:50:40;6.87;;;1.73;;
13687;SDS011;6916;51.504;7.416;2022-10-16T17:56:06;8.23;;;1.87;;
13687;SDS011;6916;51.504;7.416;2022-10-16T18:01:30;3.28;;;1.80;;
13687;SDS011;6916;51.504;7.416;2022-10-16T18:06:54;2.00;;;1.63;;
13687;SDS011;6916;51.504;7.416;2022-10-16T18:12:16;5.15;;;2.03;;
13687;SDS011;6916;51.504;7.416;2022-10-16T18:17:39;3.13;;;1.70;;
13687;SDS011;6916;51.504;7.416;2022-10-16T18:23:01;2.37;;;1.50;;
13687;SDS011;6916;51.504;7.416;2022-10-16T18:28:24;4.27;;;1.33;;
13687;SDS011;6916;51.504;7.416;2022-10-16T18:33:46;2.92;;;1.45;;
13687;SDS011;6916;51.504;7.416;2022-10-16T18:39:12;4.68;;;1.70;;
13687;SDS011;6916;51.504;7.416;2022-10-16T18:44:34;3.13;;;1.70;;
13687;SDS011;6916;51.504;7.416;2022-10-16T18:49:56;6.47;;;1.55;;
13687;SDS011;6916;51.504;7.416;2022-10-16T18:55:19;4.22;;;1.73;;
13687;SDS011;6916;51.504;7.416;2022-10-16T19:00:42;2.13;;;1.60;;
13687;SDS011;6916;51.504;7.416;2022-10-16T19:06:06;2.58;;;1.08;;
13687;SDS011;6916;51.504;7.416;2022-10-16T19:11:31;1.83;;;1.43;;
13687;SDS011;6916;51.504;7.416;2022-10-16T19:16:51;2.17;;;1.10;;
13687;SDS011;6916;51.504;7.416;2022-10-16T19:22:13;2.65;;;1.00;;
13687;SDS011;6916;51.504;7.416;2022-10-16T19:27:48;3.83;;;1.50;;
13687;SDS011;6916;51.504;7.416;2022-10-16T19:33:11;6.22;;;1.60;;
13687;SDS011;6916;51.504;7.416;2022-10-16T19:38:33;5.75;;;2.08;;
13687;SDS011;6916;51.504;7.416;2022-10-16T19:43:59;4.07;;;2.00;;
13687;SDS011;6916;51.504;7.416;2022-10-16T19:49:25;3.45;;;1.85;;
13687;SDS011;6916;51.504;7.416;2022-10-16T19:54:47;3.07;;;1.83;;
13687;SDS011;6916;51.504;7.416;2022-10-16T20:00:09;5.43;;;2.80;;
13687;SDS011;6916;51.504;7.416;2022-10-16T20:05:32;6.57;;;2.83;;
13687;SDS011;6916;51.504;7.416;2022-10-16T20:10:54;4.47;;;2.83;;
13687;SDS011;6916;51.504;7.416;2022-10-16T20:16:17;2.92;;;2.42;;
13687;SDS011;6916;51.504;7.416;2022-10-16T20:21:40;5.68;;;3.38;;
13687;SDS011;6916;51.504;7.416;2022-10-16T20:27:02;7.20;;;2.58;;
13687;SDS011;6916;51.504;7.416;2022-10-16T20:32:24;5.65;;;2.50;;
13687;SDS011;6916;51.504;7.416;2022-10-16T20:37:46;3.95;;;2.83;;
13687;SDS011;6916;51.504;7.416;2022-10-16T20:43:13;3.97;;;2.85;;
13687;SDS011;6916;51.504;7.416;2022-10-16T20:48:37;7.77;;;3.10;;
13687;SDS011;6916;51.504;7.416;2022-10-16T20:54:05;4.87;;;2.93;;
13687;SDS011;6916;51.504;7.416;2022-10-16T20:59:28;4.20;;;2.78;;
13687;SDS011;6916;51.504;7.416;2022-10-16T21:04:50;5.10;;;2.95;;
13687;SDS011;6916;51.504;7.416;2022-10-16T21:10:12;5.38;;;2.95;;
13687;SDS011;6916;51.504;7.416;2022-10-16T21:15:35;6.05;;;3.05;;
13687;SDS011;6916;51.504;7.416;2022-10-16T21:20:57;4.60;;;3.60;;
13687;SDS011;6916;51.504;7.416;2022-10-16T21:26:20;6.57;;;3.30;;
13687;SDS011;6916;51.504;7.416;2022-10-16T21:31:48;5.85;;;3.10;;
13687;SDS011;6916;51.504;7.416;2022-10-16T21:37:10;5.68;;;3.42;;
13687;SDS011;6916;51.504;7.416;2022-10-16T21:42:32;7.23;;;3.33;;
13687;SDS011;6916;51.504;7.416;2022-10-16T21:47:54;7.38;;;3.58;;
13687;SDS011;6916;51.504;7.416;2022-10-16T21:52:57;5.30;;;4.47;;
13687;SDS011;6916;51.504;7.416;2022-10-16T21:58:19;8.07;;;5.00;;
13687;SDS011;6916;51.504;7.416;2022-10-16T22:03:42;6.80;;;3.87;;
13687;SDS011;6916;51.504;7.416;2022-10-16T22:09:05;5.32;;;4.18;;
13687;SDS011;6916;51.504;7.416;2022-10-16T22:14:27;7.53;;;4.57;;
13687;SDS011;6916;51.504;7.416;2022-10-16T22:19:50;8.90;;;4.05;;
13687;SDS011;6916;51.504;7.416;2022-10-16T22:25:12;9.73;;;4.07;;
13687;SDS011;6916;51.504;7.416;2022-10-16T22:30:35;5.90;;;4.60;;
13687;SDS011;6916;51.504;7.416;2022-10-16T22:36:01;7.63;;;3.93;;
13687;SDS011;6916;51.504;7.416;2022-10-16T22:41:24;4.43;;;3.57;;
13687;SDS011;6916;51.504;7.416;2022-10-16T22:46:46;4.50;;;3.43;;
13687;SDS011;6916;51.504;7.416;2022-10-16T22:52:08;5.20;;;3.70;;
13687;SDS011;6916;51.504;7.416;2022-10-16T22:57:31;6.20;;;3.50;;
13687;SDS011;6916;51.504;7.416;2022-10-16T23:02:53;3.95;;;3.25;;
13687;SDS011;6916;51.504;7.416;2022-10-16T23:08:16;4.67;;;3.60;;
13687;SDS011;6916;51.504;7.416;2022-10-16T23:13:38;7.70;;;3.33;;
13687;SDS011;6916;51.504;7.416;2022-10-16T23:19:05;5.30;;;3.70;;
13687;SDS011;6916;51.504;7.416;2022-10-16T23:24:08;5.05;;;3.47;;
13687;SDS011;6916;51.504;7.416;2022-10-16T23:29:30;10.70;;;4.23;;
13687;SDS011;6916;51.504;7.416;2022-10-16T23:34:52;5.93;;;3.40;;
13687;SDS011;6916;51.504;7.416;2022-10-16T23:40:14;5.73;;;3.70;;
13687;SDS011;6916;51.504;7.416;2022-10-16T23:45:36;7.00;;;4.37;;
13687;SDS011;6916;51.504;7.416;2022-10-16T23:50:58;4.47;;;3.10;;
13687;SDS011;6916;51.504;7.416;2022-10-16T23:56:20;3.87;;;3.53;;
